SBI5254 UIUU-UNNT
Flight info
| Callsign | SBI5254 |
|---|---|
| Flight time | 2h 27m |
| Altitude | 36000 |
| Route | PILUG5B PILUG B155 IKT W241 KEDRA A307 RATKO R116 KESED B926 NATIR NATIR1N |
| Aircraft | A321/M-SDE3FGHIRWY/LB1 |
Departure
| Time | 2026-04-14 18:17 |
|---|---|
| Airport | Baikal International Airport (UIUU) |
Arrival
| Time | 2026-04-14 20:45 |
|---|---|
| Airport | Novosibirsk Tolmachevo Airport (UNNT) |
| Time | Latitude | Longitude | Altitude | Speed | Heading |
|---|---|---|---|---|---|
| 2026-04-14 17:41 | 51.80555 | 107.44078 | 1692 ft | 0 kts | 166° |
| 2026-04-14 18:07 | 51.80557 | 107.44078 | 1693 ft | 1 kts | 166° |
| 2026-04-14 18:07 | 51.80572 | 107.44074 | 1693 ft | 2 kts | 184° |
| 2026-04-14 18:08 | 51.80586 | 107.44079 | 1693 ft | 2 kts | 200° |
| 2026-04-14 18:08 | 51.80599 | 107.44089 | 1693 ft | 2 kts | 218° |
| 2026-04-14 18:08 | 51.80610 | 107.44108 | 1693 ft | 2 kts | 236° |
| 2026-04-14 18:08 | 51.80616 | 107.44129 | 1693 ft | 1 kts | 254° |
| 2026-04-14 18:09 | 51.80618 | 107.44138 | 1693 ft | 1 kts | 260° |
| 2026-04-14 18:09 | 51.80618 | 107.44143 | 1693 ft | 0 kts | 258° |
| 2026-04-14 18:11 | 51.80618 | 107.44142 | 1693 ft | 0 kts | 258° |
| 2026-04-14 18:11 | 51.80616 | 107.44128 | 1693 ft | 3 kts | 258° |
| 2026-04-14 18:11 | 51.80609 | 107.44070 | 1693 ft | 7 kts | 258° |
| 2026-04-14 18:11 | 51.80600 | 107.43978 | 1693 ft | 8 kts | 271° |
| 2026-04-14 18:12 | 51.80630 | 107.43926 | 1693 ft | 7 kts | 344° |
| 2026-04-14 18:12 | 51.80681 | 107.43906 | 1692 ft | 7 kts | 346° |
| 2026-04-14 18:12 | 51.80725 | 107.43889 | 1692 ft | 4 kts | 342° |
| 2026-04-14 18:12 | 51.80754 | 107.43859 | 1692 ft | 5 kts | 307° |
| 2026-04-14 18:13 | 51.80770 | 107.43792 | 1692 ft | 8 kts | 272° |
| 2026-04-14 18:13 | 51.80757 | 107.43683 | 1692 ft | 11 kts | 258° |
| 2026-04-14 18:13 | 51.80739 | 107.43534 | 1692 ft | 15 kts | 258° |
| 2026-04-14 18:13 | 51.80715 | 107.43354 | 1692 ft | 17 kts | 257° |
| 2026-04-14 18:14 | 51.80687 | 107.43147 | 1692 ft | 20 kts | 258° |
| 2026-04-14 18:14 | 51.80658 | 107.42915 | 1692 ft | 22 kts | 257° |
| 2026-04-14 18:14 | 51.80626 | 107.42662 | 1691 ft | 23 kts | 258° |
| 2026-04-14 18:14 | 51.80590 | 107.42400 | 1691 ft | 23 kts | 258° |
| 2026-04-14 18:15 | 51.80557 | 107.42149 | 1691 ft | 22 kts | 257° |
| 2026-04-14 18:15 | 51.80527 | 107.41908 | 1691 ft | 17 kts | 258° |
| 2026-04-14 18:15 | 51.80514 | 107.41783 | 1691 ft | 10 kts | 273° |
| 2026-04-14 18:15 | 51.80558 | 107.41701 | 1691 ft | 10 kts | 341° |
| 2026-04-14 18:16 | 51.80633 | 107.41677 | 1691 ft | 9 kts | 358° |
| 2026-04-14 18:16 | 51.80680 | 107.41742 | 1691 ft | 9 kts | 75° |
| 2026-04-14 18:16 | 51.80696 | 107.41868 | 1691 ft | 18 kts | 78° |
| 2026-04-14 18:16 | 51.80772 | 107.42465 | 1691 ft | 89 kts | 78° |
| 2026-04-14 18:17 | 51.80947 | 107.43791 | 1693 ft | 150 kts | 77° |
| 2026-04-14 18:17 | 51.81186 | 107.45631 | 1970 ft | 175 kts | 77° |
| 2026-04-14 18:17 | 51.81444 | 107.47575 | 2472 ft | 186 kts | 75° |
| 2026-04-14 18:17 | 51.81706 | 107.49578 | 3327 ft | 180 kts | 76° |
| 2026-04-14 18:18 | 51.81950 | 107.51504 | 3815 ft | 182 kts | 75° |
| 2026-04-14 18:18 | 51.82046 | 107.53613 | 4078 ft | 199 kts | 99° |
| 2026-04-14 18:18 | 51.81347 | 107.55605 | 4346 ft | 214 kts | 137° |
| 2026-04-14 18:18 | 51.79982 | 107.56599 | 4617 ft | 225 kts | 175° |
| 2026-04-14 18:19 | 51.78429 | 107.56033 | 4838 ft | 237 kts | 217° |
| 2026-04-14 18:19 | 51.77408 | 107.53968 | 5172 ft | 245 kts | 250° |
| 2026-04-14 18:19 | 51.76840 | 107.51331 | 5624 ft | 257 kts | 253° |
| 2026-04-14 18:19 | 51.76211 | 107.48586 | 6282 ft | 262 kts | 252° |
| 2026-04-14 18:20 | 51.75560 | 107.45854 | 7040 ft | 263 kts | 251° |
| 2026-04-14 18:20 | 51.74906 | 107.43142 | 7816 ft | 264 kts | 251° |
| 2026-04-14 18:20 | 51.74239 | 107.40398 | 8606 ft | 264 kts | 251° |
| 2026-04-14 18:20 | 51.73569 | 107.37648 | 9394 ft | 264 kts | 250° |
| 2026-04-14 18:21 | 51.72906 | 107.34933 | 10124 ft | 266 kts | 250° |
| 2026-04-14 18:21 | 51.72209 | 107.32083 | 10515 ft | 280 kts | 250° |
| 2026-04-14 18:21 | 51.71484 | 107.29125 | 10859 ft | 293 kts | 250° |
| 2026-04-14 18:21 | 51.70730 | 107.26057 | 11486 ft | 297 kts | 250° |
| 2026-04-14 18:22 | 51.69971 | 107.22975 | 12182 ft | 298 kts | 250° |
| 2026-04-14 18:22 | 51.69208 | 107.19888 | 12862 ft | 300 kts | 250° |
| 2026-04-14 18:22 | 51.68438 | 107.16763 | 13542 ft | 301 kts | 250° |
| 2026-04-14 18:22 | 51.67667 | 107.13642 | 14188 ft | 303 kts | 250° |
| 2026-04-14 18:23 | 51.66880 | 107.10468 | 14835 ft | 305 kts | 250° |
| 2026-04-14 18:23 | 51.66195 | 107.07297 | 15435 ft | 305 kts | 260° |
| 2026-04-14 18:23 | 51.66192 | 107.03907 | 15988 ft | 307 kts | 280° |
| 2026-04-14 18:23 | 51.66944 | 107.00719 | 16593 ft | 311 kts | 296° |
| 2026-04-14 18:24 | 51.68009 | 106.97666 | 17191 ft | 313 kts | 296° |
| 2026-04-14 18:24 | 51.69077 | 106.94585 | 17738 ft | 316 kts | 296° |
| 2026-04-14 18:24 | 51.70154 | 106.91466 | 18245 ft | 320 kts | 296° |
| 2026-04-14 18:24 | 51.71240 | 106.88321 | 18759 ft | 323 kts | 295° |
| 2026-04-14 18:25 | 51.72319 | 106.85198 | 19291 ft | 325 kts | 295° |
| 2026-04-14 18:25 | 51.73421 | 106.81998 | 19832 ft | 326 kts | 296° |
| 2026-04-14 18:25 | 51.74509 | 106.78844 | 20394 ft | 326 kts | 296° |
| 2026-04-14 18:25 | 51.75605 | 106.75660 | 20958 ft | 326 kts | 296° |
| 2026-04-14 18:26 | 51.76713 | 106.72436 | 21505 ft | 327 kts | 296° |
| 2026-04-14 18:26 | 51.77813 | 106.69236 | 22077 ft | 327 kts | 296° |
| 2026-04-14 18:26 | 51.78899 | 106.66074 | 22593 ft | 328 kts | 296° |
| 2026-04-14 18:26 | 51.79997 | 106.62866 | 23083 ft | 329 kts | 296° |
| 2026-04-14 18:27 | 51.81099 | 106.59650 | 23588 ft | 330 kts | 296° |
| 2026-04-14 18:27 | 51.82214 | 106.56387 | 24100 ft | 330 kts | 296° |
| 2026-04-14 18:27 | 51.83340 | 106.53097 | 24601 ft | 330 kts | 296° |
| 2026-04-14 18:27 | 51.84434 | 106.49880 | 25027 ft | 332 kts | 297° |
| 2026-04-14 18:28 | 51.85553 | 106.46603 | 25373 ft | 335 kts | 296° |
| 2026-04-14 18:28 | 51.86688 | 106.43263 | 25558 ft | 342 kts | 296° |
| 2026-04-14 18:28 | 51.87834 | 106.39885 | 25838 ft | 346 kts | 296° |
| 2026-04-14 18:28 | 51.89001 | 106.36446 | 26169 ft | 348 kts | 296° |
| 2026-04-14 18:29 | 51.90165 | 106.33007 | 26487 ft | 351 kts | 296° |
| 2026-04-14 18:29 | 51.91330 | 106.29558 | 26809 ft | 353 kts | 295° |
| 2026-04-14 18:29 | 51.92524 | 106.26026 | 27112 ft | 356 kts | 295° |
| 2026-04-14 18:29 | 51.93684 | 106.22537 | 27398 ft | 358 kts | 294° |
| 2026-04-14 18:30 | 51.94706 | 106.18784 | 27679 ft | 359 kts | 289° |
| 2026-04-14 18:30 | 51.95481 | 106.14947 | 27967 ft | 361 kts | 284° |
| 2026-04-14 18:30 | 51.96032 | 106.10995 | 28232 ft | 363 kts | 280° |
| 2026-04-14 18:30 | 51.96492 | 106.06968 | 28514 ft | 365 kts | 279° |
| 2026-04-14 18:31 | 51.96944 | 106.02872 | 28794 ft | 368 kts | 279° |
| 2026-04-14 18:31 | 51.97385 | 105.98811 | 29042 ft | 370 kts | 279° |
| 2026-04-14 18:31 | 51.97831 | 105.94681 | 29311 ft | 372 kts | 279° |
| 2026-04-14 18:31 | 51.98275 | 105.90535 | 29570 ft | 375 kts | 278° |
| 2026-04-14 18:32 | 51.98718 | 105.86395 | 29815 ft | 376 kts | 279° |
| 2026-04-14 18:32 | 51.99158 | 105.82253 | 30049 ft | 378 kts | 279° |
| 2026-04-14 18:32 | 51.99603 | 105.78056 | 30304 ft | 380 kts | 279° |
| 2026-04-14 18:32 | 52.00052 | 105.73810 | 30557 ft | 382 kts | 279° |
| 2026-04-14 18:33 | 52.00498 | 105.69582 | 30772 ft | 383 kts | 279° |
| 2026-04-14 18:33 | 52.00943 | 105.65334 | 30983 ft | 385 kts | 279° |
| 2026-04-14 18:33 | 52.01392 | 105.61044 | 31229 ft | 386 kts | 278° |
| 2026-04-14 18:34 | 52.02740 | 105.48196 | 31981 ft | 386 kts | 280° |
| 2026-04-14 18:34 | 52.03306 | 105.43984 | 32221 ft | 385 kts | 282° |
| 2026-04-14 18:34 | 52.03994 | 105.39834 | 32457 ft | 385 kts | 285° |
| 2026-04-14 18:35 | 52.04821 | 105.35682 | 32686 ft | 385 kts | 287° |
| 2026-04-14 18:35 | 52.05740 | 105.31610 | 32921 ft | 384 kts | 288° |
| 2026-04-14 18:35 | 52.06674 | 105.27539 | 33154 ft | 384 kts | 288° |
| 2026-04-14 18:35 | 52.07604 | 105.23492 | 33380 ft | 383 kts | 288° |
| 2026-04-14 18:36 | 52.08528 | 105.19476 | 33591 ft | 383 kts | 288° |
| 2026-04-14 18:36 | 52.09449 | 105.15464 | 33808 ft | 382 kts | 288° |
| 2026-04-14 18:36 | 52.10374 | 105.11419 | 34009 ft | 382 kts | 288° |
| 2026-04-14 18:36 | 52.11297 | 105.07389 | 34197 ft | 382 kts | 287° |
| 2026-04-14 18:37 | 52.12220 | 105.03342 | 34357 ft | 382 kts | 287° |
| 2026-04-14 18:37 | 52.13146 | 104.99279 | 34506 ft | 383 kts | 287° |
| 2026-04-14 18:37 | 52.14063 | 104.95252 | 34657 ft | 383 kts | 287° |
| 2026-04-14 18:37 | 52.14980 | 104.91210 | 34796 ft | 384 kts | 287° |
| 2026-04-14 18:38 | 52.15902 | 104.87137 | 34910 ft | 385 kts | 287° |
| 2026-04-14 18:38 | 52.16817 | 104.83083 | 35036 ft | 385 kts | 288° |
| 2026-04-14 18:38 | 52.17738 | 104.78999 | 35159 ft | 386 kts | 288° |
| 2026-04-14 18:38 | 52.18662 | 104.74898 | 35265 ft | 387 kts | 288° |
| 2026-04-14 18:39 | 52.19591 | 104.70763 | 35377 ft | 387 kts | 288° |
| 2026-04-14 18:39 | 52.20519 | 104.66631 | 35464 ft | 389 kts | 288° |
| 2026-04-14 18:39 | 52.22368 | 104.58360 | 35638 ft | 391 kts | 288° |
| 2026-04-14 18:40 | 52.24216 | 104.50054 | 35821 ft | 392 kts | 288° |
| 2026-04-14 18:40 | 52.25966 | 104.41605 | 35873 ft | 393 kts | 284° |
| 2026-04-14 18:41 | 52.27340 | 104.32989 | 35871 ft | 393 kts | 282° |
| 2026-04-14 18:41 | 52.28672 | 104.24345 | 35874 ft | 393 kts | 282° |
| 2026-04-14 18:42 | 52.29998 | 104.15695 | 35884 ft | 394 kts | 282° |
| 2026-04-14 18:42 | 52.31310 | 104.07064 | 35886 ft | 394 kts | 282° |
| 2026-04-14 18:43 | 52.32620 | 103.98399 | 35892 ft | 393 kts | 283° |
| 2026-04-14 18:43 | 52.33923 | 103.89745 | 35900 ft | 394 kts | 283° |
| 2026-04-14 18:44 | 52.35212 | 103.81137 | 35900 ft | 394 kts | 282° |
| 2026-04-14 18:44 | 52.36502 | 103.72463 | 35899 ft | 394 kts | 283° |
| 2026-04-14 18:45 | 52.37788 | 103.63769 | 35904 ft | 395 kts | 283° |
| 2026-04-14 18:45 | 52.39072 | 103.55042 | 35911 ft | 395 kts | 283° |
| 2026-04-14 18:46 | 52.40353 | 103.46275 | 35911 ft | 395 kts | 283° |
| 2026-04-14 18:46 | 52.41616 | 103.37595 | 35917 ft | 395 kts | 283° |
| 2026-04-14 18:47 | 52.42876 | 103.28860 | 35915 ft | 395 kts | 282° |
| 2026-04-14 18:47 | 52.44208 | 103.20173 | 35918 ft | 396 kts | 285° |
| 2026-04-14 18:48 | 52.45956 | 103.11692 | 35903 ft | 396 kts | 288° |
| 2026-04-14 18:48 | 52.47825 | 103.03185 | 35895 ft | 396 kts | 288° |
| 2026-04-14 18:49 | 52.49678 | 102.94726 | 35891 ft | 396 kts | 288° |
| 2026-04-14 18:49 | 52.51528 | 102.86247 | 35895 ft | 396 kts | 288° |
| 2026-04-14 18:50 | 52.53370 | 102.77778 | 35908 ft | 396 kts | 288° |
| 2026-04-14 18:50 | 52.55204 | 102.69299 | 35903 ft | 396 kts | 288° |
| 2026-04-14 18:51 | 52.57037 | 102.60802 | 35903 ft | 397 kts | 288° |
| 2026-04-14 18:51 | 52.58875 | 102.52241 | 35900 ft | 397 kts | 288° |
| 2026-04-14 18:52 | 52.60698 | 102.43707 | 35901 ft | 397 kts | 288° |
| 2026-04-14 18:52 | 52.62526 | 102.35120 | 35910 ft | 398 kts | 288° |
| 2026-04-14 18:53 | 52.64340 | 102.26564 | 35921 ft | 398 kts | 288° |
| 2026-04-14 18:53 | 52.66153 | 102.17969 | 35925 ft | 398 kts | 288° |
| 2026-04-14 18:54 | 52.67960 | 102.09378 | 35923 ft | 399 kts | 288° |
| 2026-04-14 18:54 | 52.69756 | 102.00793 | 35923 ft | 398 kts | 288° |
| 2026-04-14 18:55 | 52.71560 | 101.92143 | 35917 ft | 400 kts | 287° |
| 2026-04-14 18:55 | 52.73354 | 101.83501 | 35903 ft | 400 kts | 287° |
| 2026-04-14 18:56 | 52.75127 | 101.74909 | 35887 ft | 399 kts | 288° |
| 2026-04-14 18:56 | 52.76907 | 101.66257 | 35873 ft | 398 kts | 288° |
| 2026-04-14 18:57 | 52.78670 | 101.57651 | 35861 ft | 398 kts | 288° |
| 2026-04-14 18:57 | 52.80431 | 101.49020 | 35847 ft | 398 kts | 287° |
| 2026-04-14 18:58 | 52.82193 | 101.40339 | 35835 ft | 399 kts | 288° |
| 2026-04-14 18:58 | 52.83946 | 101.31656 | 35827 ft | 398 kts | 287° |
| 2026-04-14 18:59 | 52.85697 | 101.22950 | 35822 ft | 399 kts | 287° |
| 2026-04-14 18:59 | 52.87440 | 101.14262 | 35818 ft | 400 kts | 287° |
| 2026-04-14 19:00 | 52.89181 | 101.05527 | 35811 ft | 400 kts | 287° |
| 2026-04-14 19:00 | 52.90912 | 100.96804 | 35811 ft | 399 kts | 287° |
| 2026-04-14 19:01 | 52.92638 | 100.88069 | 35793 ft | 400 kts | 287° |
| 2026-04-14 19:01 | 52.94369 | 100.79275 | 35755 ft | 400 kts | 287° |
| 2026-04-14 19:02 | 52.96080 | 100.70545 | 35724 ft | 399 kts | 287° |
| 2026-04-14 19:02 | 52.97781 | 100.61807 | 35736 ft | 399 kts | 287° |
| 2026-04-14 19:03 | 52.99473 | 100.53069 | 35780 ft | 397 kts | 287° |
| 2026-04-14 19:03 | 53.01178 | 100.44380 | 35810 ft | 397 kts | 288° |
| 2026-04-14 19:04 | 53.02926 | 100.35658 | 35813 ft | 397 kts | 288° |
| 2026-04-14 19:04 | 53.04662 | 100.26945 | 35778 ft | 396 kts | 287° |
| 2026-04-14 19:05 | 53.06391 | 100.18218 | 35734 ft | 397 kts | 287° |
| 2026-04-14 19:05 | 53.08102 | 100.09517 | 35701 ft | 397 kts | 287° |
| 2026-04-14 19:06 | 53.09808 | 100.00806 | 35687 ft | 396 kts | 287° |
| 2026-04-14 19:06 | 53.11504 | 99.92117 | 35692 ft | 396 kts | 287° |
| 2026-04-14 19:07 | 53.13203 | 99.83369 | 35721 ft | 396 kts | 287° |
| 2026-04-14 19:07 | 53.14877 | 99.74706 | 35773 ft | 396 kts | 287° |
| 2026-04-14 19:08 | 53.16559 | 99.65961 | 35796 ft | 397 kts | 287° |
| 2026-04-14 19:08 | 53.18237 | 99.57200 | 35810 ft | 398 kts | 287° |
| 2026-04-14 19:09 | 53.19917 | 99.48383 | 35807 ft | 405 kts | 287° |
| 2026-04-14 19:09 | 53.21625 | 99.39372 | 35820 ft | 409 kts | 287° |
| 2026-04-14 19:10 | 53.23325 | 99.30366 | 35832 ft | 409 kts | 286° |
| 2026-04-14 19:10 | 53.25033 | 99.21282 | 35829 ft | 410 kts | 286° |
| 2026-04-14 19:11 | 53.26734 | 99.12183 | 35831 ft | 411 kts | 286° |
| 2026-04-14 19:11 | 53.28424 | 99.03105 | 35812 ft | 411 kts | 286° |
| 2026-04-14 19:12 | 53.30116 | 98.93959 | 35807 ft | 411 kts | 287° |
| 2026-04-14 19:13 | 53.32625 | 98.80328 | 35796 ft | 411 kts | 287° |
| 2026-04-14 19:13 | 53.34300 | 98.71177 | 35788 ft | 410 kts | 287° |
| 2026-04-14 19:14 | 53.35950 | 98.62109 | 35797 ft | 410 kts | 287° |
| 2026-04-14 19:14 | 53.37603 | 98.52978 | 35809 ft | 410 kts | 287° |
| 2026-04-14 19:15 | 53.39249 | 98.43841 | 35816 ft | 410 kts | 287° |
| 2026-04-14 19:15 | 53.40884 | 98.34721 | 35795 ft | 410 kts | 286° |
| 2026-04-14 19:16 | 53.42518 | 98.25562 | 35772 ft | 410 kts | 286° |
| 2026-04-14 19:16 | 53.44146 | 98.16385 | 35767 ft | 411 kts | 286° |
| 2026-04-14 19:17 | 53.45763 | 98.07233 | 35786 ft | 410 kts | 286° |
| 2026-04-14 19:17 | 53.47380 | 97.98029 | 35814 ft | 410 kts | 287° |
| 2026-04-14 19:18 | 53.48988 | 97.88828 | 35836 ft | 410 kts | 286° |
| 2026-04-14 19:18 | 53.50577 | 97.79694 | 35850 ft | 410 kts | 286° |
| 2026-04-14 19:19 | 53.52162 | 97.70522 | 35851 ft | 409 kts | 286° |
| 2026-04-14 19:19 | 53.53738 | 97.61366 | 35825 ft | 409 kts | 286° |
| 2026-04-14 19:20 | 53.55314 | 97.52148 | 35798 ft | 408 kts | 286° |
| 2026-04-14 19:20 | 53.56868 | 97.43006 | 35785 ft | 407 kts | 287° |
| 2026-04-14 19:21 | 53.58418 | 97.33845 | 35793 ft | 408 kts | 286° |
| 2026-04-14 19:21 | 53.59943 | 97.24633 | 35811 ft | 408 kts | 285° |
| 2026-04-14 19:22 | 53.61437 | 97.15461 | 35815 ft | 408 kts | 285° |
| 2026-04-14 19:22 | 53.62929 | 97.06252 | 35808 ft | 408 kts | 285° |
| 2026-04-14 19:23 | 53.64412 | 96.97037 | 35788 ft | 408 kts | 285° |
| 2026-04-14 19:23 | 53.65883 | 96.87868 | 35776 ft | 408 kts | 285° |
| 2026-04-14 19:24 | 53.67357 | 96.78622 | 35786 ft | 409 kts | 285° |
| 2026-04-14 19:24 | 53.68818 | 96.69407 | 35815 ft | 409 kts | 285° |
| 2026-04-14 19:25 | 53.70289 | 96.60075 | 35848 ft | 409 kts | 285° |
| 2026-04-14 19:25 | 53.71734 | 96.50850 | 35881 ft | 410 kts | 285° |
| 2026-04-14 19:26 | 53.73190 | 96.41512 | 35918 ft | 410 kts | 285° |
| 2026-04-14 19:26 | 53.74627 | 96.32230 | 35971 ft | 410 kts | 284° |
| 2026-04-14 19:27 | 53.76066 | 96.22907 | 36020 ft | 411 kts | 285° |
| 2026-04-14 19:27 | 53.77498 | 96.13566 | 36006 ft | 411 kts | 285° |
| 2026-04-14 19:28 | 53.78923 | 96.04214 | 35963 ft | 412 kts | 285° |
| 2026-04-14 19:28 | 53.80340 | 95.94858 | 35921 ft | 412 kts | 284° |
| 2026-04-14 19:29 | 53.81749 | 95.85489 | 35894 ft | 412 kts | 285° |
| 2026-04-14 19:29 | 53.83157 | 95.76086 | 35871 ft | 412 kts | 285° |
| 2026-04-14 19:30 | 53.84192 | 95.69137 | 35864 ft | 412 kts | 285° |
| 2026-04-14 19:30 | 53.85591 | 95.59705 | 35878 ft | 412 kts | 284° |
| 2026-04-14 19:31 | 53.86980 | 95.50267 | 35898 ft | 413 kts | 285° |
| 2026-04-14 19:31 | 53.88349 | 95.40916 | 35917 ft | 413 kts | 285° |
| 2026-04-14 19:32 | 53.89725 | 95.31459 | 35929 ft | 413 kts | 284° |
| 2026-04-14 19:32 | 53.91090 | 95.22017 | 35927 ft | 413 kts | 284° |
| 2026-04-14 19:33 | 53.92451 | 95.12560 | 35929 ft | 414 kts | 284° |
| 2026-04-14 19:33 | 53.93809 | 95.03049 | 35940 ft | 415 kts | 284° |
| 2026-04-14 19:34 | 53.95836 | 94.88753 | 35968 ft | 415 kts | 284° |
| 2026-04-14 19:34 | 53.97175 | 94.79237 | 35997 ft | 416 kts | 284° |
| 2026-04-14 19:35 | 53.98515 | 94.69666 | 36031 ft | 416 kts | 284° |
| 2026-04-14 19:35 | 53.99841 | 94.60117 | 36045 ft | 416 kts | 284° |
| 2026-04-14 19:36 | 54.01158 | 94.50575 | 36073 ft | 417 kts | 284° |
| 2026-04-14 19:36 | 54.02480 | 94.40926 | 36054 ft | 417 kts | 284° |
| 2026-04-14 19:37 | 54.03790 | 94.31306 | 35995 ft | 418 kts | 283° |
| 2026-04-14 19:37 | 54.05083 | 94.21755 | 35952 ft | 417 kts | 283° |
| 2026-04-14 19:38 | 54.06377 | 94.12134 | 35976 ft | 418 kts | 283° |
| 2026-04-14 19:38 | 54.07666 | 94.02490 | 36040 ft | 418 kts | 284° |
| 2026-04-14 19:39 | 54.08947 | 93.92832 | 36090 ft | 419 kts | 283° |
| 2026-04-14 19:39 | 54.10216 | 93.83189 | 36116 ft | 419 kts | 284° |
| 2026-04-14 19:40 | 54.11481 | 93.73511 | 36149 ft | 419 kts | 284° |
| 2026-04-14 19:40 | 54.12733 | 93.63892 | 36142 ft | 420 kts | 284° |
| 2026-04-14 19:41 | 54.13996 | 93.54157 | 36143 ft | 420 kts | 284° |
| 2026-04-14 19:41 | 54.15239 | 93.44482 | 36128 ft | 421 kts | 284° |
| 2026-04-14 19:42 | 54.16480 | 93.34746 | 36141 ft | 421 kts | 283° |
| 2026-04-14 19:42 | 54.17711 | 93.25008 | 36142 ft | 421 kts | 283° |
| 2026-04-14 19:43 | 54.18945 | 93.15180 | 36162 ft | 421 kts | 283° |
| 2026-04-14 19:43 | 54.20153 | 93.05502 | 36163 ft | 421 kts | 283° |
| 2026-04-14 19:44 | 54.21374 | 92.95657 | 36159 ft | 422 kts | 283° |
| 2026-04-14 19:44 | 54.22571 | 92.85918 | 36158 ft | 422 kts | 283° |
| 2026-04-14 19:45 | 54.23767 | 92.76128 | 36166 ft | 422 kts | 283° |
| 2026-04-14 19:45 | 54.24958 | 92.66293 | 36166 ft | 422 kts | 283° |
| 2026-04-14 19:46 | 54.26139 | 92.56477 | 36164 ft | 423 kts | 283° |
| 2026-04-14 19:46 | 54.27315 | 92.46632 | 36157 ft | 423 kts | 283° |
| 2026-04-14 19:47 | 54.28483 | 92.36782 | 36164 ft | 423 kts | 283° |
| 2026-04-14 19:47 | 54.29548 | 92.27735 | 36169 ft | 423 kts | 283° |
| 2026-04-14 19:48 | 54.30687 | 92.17988 | 36182 ft | 423 kts | 283° |
| 2026-04-14 19:48 | 54.31785 | 92.08518 | 36190 ft | 424 kts | 283° |
| 2026-04-14 19:49 | 54.32732 | 92.00303 | 36196 ft | 423 kts | 283° |
| 2026-04-14 19:49 | 54.34057 | 91.88712 | 36191 ft | 424 kts | 283° |
| 2026-04-14 19:50 | 54.35172 | 91.78869 | 36187 ft | 424 kts | 283° |
| 2026-04-14 19:50 | 54.36292 | 91.68909 | 36188 ft | 424 kts | 283° |
| 2026-04-14 19:51 | 54.37387 | 91.59067 | 36203 ft | 424 kts | 283° |
| 2026-04-14 19:51 | 54.38452 | 91.49108 | 36218 ft | 425 kts | 281° |
| 2026-04-14 19:52 | 54.39269 | 91.39118 | 36228 ft | 425 kts | 280° |
| 2026-04-14 19:52 | 54.40058 | 91.29115 | 36235 ft | 425 kts | 279° |
| 2026-04-14 19:53 | 54.40843 | 91.19065 | 36236 ft | 425 kts | 279° |
| 2026-04-14 19:53 | 54.41618 | 91.09033 | 36215 ft | 425 kts | 279° |
| 2026-04-14 19:54 | 54.42768 | 90.93937 | 36175 ft | 426 kts | 279° |
| 2026-04-14 19:55 | 54.43523 | 90.83875 | 36178 ft | 426 kts | 279° |
| 2026-04-14 19:55 | 54.44269 | 90.73824 | 36190 ft | 426 kts | 280° |
| 2026-04-14 19:56 | 54.45006 | 90.63785 | 36198 ft | 426 kts | 280° |
| 2026-04-14 19:56 | 54.45732 | 90.53772 | 36202 ft | 425 kts | 280° |
| 2026-04-14 19:57 | 54.46455 | 90.43696 | 36209 ft | 425 kts | 280° |
| 2026-04-14 19:57 | 54.47166 | 90.33649 | 36216 ft | 425 kts | 279° |
| 2026-04-14 19:58 | 54.47865 | 90.23653 | 36221 ft | 425 kts | 279° |
| 2026-04-14 19:58 | 54.48559 | 90.13605 | 36218 ft | 425 kts | 279° |
| 2026-04-14 19:59 | 54.49249 | 90.03508 | 36214 ft | 425 kts | 279° |
| 2026-04-14 19:59 | 54.49925 | 89.93488 | 36210 ft | 425 kts | 279° |
| 2026-04-14 20:00 | 54.50596 | 89.83409 | 36205 ft | 425 kts | 279° |
| 2026-04-14 20:00 | 54.51261 | 89.73282 | 36201 ft | 425 kts | 279° |
| 2026-04-14 20:01 | 54.51913 | 89.63212 | 36188 ft | 425 kts | 279° |
| 2026-04-14 20:01 | 54.52558 | 89.53135 | 36170 ft | 425 kts | 279° |
| 2026-04-14 20:02 | 54.53191 | 89.43105 | 36162 ft | 425 kts | 279° |
| 2026-04-14 20:02 | 54.53821 | 89.32984 | 36175 ft | 425 kts | 279° |
| 2026-04-14 20:03 | 54.54443 | 89.22861 | 36194 ft | 425 kts | 279° |
| 2026-04-14 20:03 | 54.55056 | 89.12724 | 36187 ft | 426 kts | 279° |
| 2026-04-14 20:04 | 54.55661 | 89.02583 | 36167 ft | 426 kts | 279° |
| 2026-04-14 20:04 | 54.56256 | 88.92427 | 36148 ft | 427 kts | 279° |
| 2026-04-14 20:05 | 54.56855 | 88.82327 | 36136 ft | 426 kts | 280° |
| 2026-04-14 20:05 | 54.57861 | 88.72330 | 36127 ft | 424 kts | 285° |
| 2026-04-14 20:06 | 54.59456 | 88.62596 | 36126 ft | 422 kts | 291° |
| 2026-04-14 20:06 | 54.61573 | 88.53413 | 36132 ft | 420 kts | 296° |
| 2026-04-14 20:07 | 54.64115 | 88.44370 | 36140 ft | 420 kts | 298° |
| 2026-04-14 20:07 | 54.66693 | 88.35329 | 36142 ft | 420 kts | 298° |
| 2026-04-14 20:08 | 54.69241 | 88.26367 | 36136 ft | 420 kts | 297° |
| 2026-04-14 20:08 | 54.71804 | 88.17316 | 36132 ft | 421 kts | 297° |
| 2026-04-14 20:09 | 54.74376 | 88.08198 | 36145 ft | 421 kts | 297° |
| 2026-04-14 20:09 | 54.76923 | 87.99129 | 36164 ft | 420 kts | 297° |
| 2026-04-14 20:10 | 54.79449 | 87.90099 | 36189 ft | 420 kts | 297° |
| 2026-04-14 20:10 | 54.81990 | 87.80983 | 36216 ft | 420 kts | 297° |
| 2026-04-14 20:11 | 54.84005 | 87.71488 | 36243 ft | 424 kts | 287° |
| 2026-04-14 20:11 | 54.85305 | 87.61567 | 36247 ft | 424 kts | 285° |
| 2026-04-14 20:12 | 54.86584 | 87.51601 | 36245 ft | 424 kts | 286° |
| 2026-04-14 20:12 | 54.87868 | 87.41610 | 36250 ft | 425 kts | 286° |
| 2026-04-14 20:13 | 54.89149 | 87.31636 | 36265 ft | 425 kts | 285° |
| 2026-04-14 20:13 | 54.90428 | 87.21620 | 36280 ft | 426 kts | 285° |
| 2026-04-14 20:14 | 54.91696 | 87.11614 | 36294 ft | 425 kts | 285° |
| 2026-04-14 20:14 | 54.92957 | 87.01600 | 36306 ft | 425 kts | 285° |
| 2026-04-14 20:15 | 54.94204 | 86.91622 | 36316 ft | 424 kts | 285° |
| 2026-04-14 20:15 | 54.95448 | 86.81609 | 36326 ft | 425 kts | 285° |
| 2026-04-14 20:16 | 54.96675 | 86.71660 | 36339 ft | 425 kts | 285° |
| 2026-04-14 20:16 | 54.97903 | 86.61623 | 36345 ft | 425 kts | 285° |
| 2026-04-14 20:17 | 54.99123 | 86.51580 | 36341 ft | 426 kts | 285° |
| 2026-04-14 20:17 | 55.00338 | 86.41502 | 36338 ft | 426 kts | 285° |
| 2026-04-14 20:18 | 55.01539 | 86.31470 | 36334 ft | 426 kts | 285° |
| 2026-04-14 20:18 | 55.02733 | 86.21418 | 36340 ft | 427 kts | 285° |
| 2026-04-14 20:19 | 55.03921 | 86.11346 | 36351 ft | 426 kts | 285° |
| 2026-04-14 20:19 | 55.05110 | 86.01189 | 36347 ft | 426 kts | 285° |
| 2026-04-14 20:20 | 55.06272 | 85.91162 | 36168 ft | 419 kts | 285° |
| 2026-04-14 20:20 | 55.06838 | 85.86231 | 35969 ft | 411 kts | 285° |
| 2026-04-14 20:20 | 55.07393 | 85.81400 | 35764 ft | 408 kts | 285° |
| 2026-04-14 20:20 | 55.07951 | 85.76533 | 35419 ft | 406 kts | 285° |
| 2026-04-14 20:21 | 55.08499 | 85.71738 | 34939 ft | 405 kts | 285° |
| 2026-04-14 20:21 | 55.09050 | 85.66908 | 34376 ft | 407 kts | 285° |
| 2026-04-14 20:21 | 55.09598 | 85.62073 | 33831 ft | 412 kts | 285° |
| 2026-04-14 20:21 | 55.10149 | 85.57192 | 33195 ft | 418 kts | 286° |
| 2026-04-14 20:22 | 55.10716 | 85.52158 | 32493 ft | 423 kts | 286° |
| 2026-04-14 20:22 | 55.11247 | 85.47424 | 31907 ft | 425 kts | 286° |
| 2026-04-14 20:22 | 55.11809 | 85.42378 | 31214 ft | 424 kts | 286° |
| 2026-04-14 20:22 | 55.12374 | 85.37292 | 30483 ft | 422 kts | 286° |
| 2026-04-14 20:23 | 55.12926 | 85.32288 | 29831 ft | 417 kts | 285° |
| 2026-04-14 20:23 | 55.13465 | 85.27389 | 29240 ft | 411 kts | 285° |
| 2026-04-14 20:23 | 55.13994 | 85.22559 | 28707 ft | 405 kts | 285° |
| 2026-04-14 20:23 | 55.14516 | 85.17775 | 28168 ft | 398 kts | 286° |
| 2026-04-14 20:24 | 55.15027 | 85.13077 | 27621 ft | 393 kts | 286° |
| 2026-04-14 20:24 | 55.15532 | 85.08424 | 27073 ft | 388 kts | 286° |
| 2026-04-14 20:24 | 55.16033 | 85.03790 | 26522 ft | 383 kts | 286° |
| 2026-04-14 20:24 | 55.16517 | 84.99300 | 25991 ft | 379 kts | 286° |
| 2026-04-14 20:25 | 55.17003 | 84.94774 | 25451 ft | 374 kts | 286° |
| 2026-04-14 20:25 | 55.17477 | 84.90344 | 24921 ft | 371 kts | 286° |
| 2026-04-14 20:25 | 55.17944 | 84.85963 | 24388 ft | 367 kts | 286° |
| 2026-04-14 20:25 | 55.18402 | 84.81636 | 23868 ft | 364 kts | 286° |
| 2026-04-14 20:26 | 55.18859 | 84.77316 | 23332 ft | 361 kts | 286° |
| 2026-04-14 20:26 | 55.19241 | 84.73017 | 22800 ft | 362 kts | 281° |
| 2026-04-14 20:26 | 55.19203 | 84.68588 | 22278 ft | 367 kts | 270° |
| 2026-04-14 20:26 | 55.18721 | 84.64226 | 21802 ft | 369 kts | 262° |
| 2026-04-14 20:27 | 55.18002 | 84.59911 | 21393 ft | 368 kts | 260° |
| 2026-04-14 20:27 | 55.17267 | 84.55700 | 20945 ft | 366 kts | 260° |
| 2026-04-14 20:27 | 55.16524 | 84.51476 | 20472 ft | 363 kts | 260° |
| 2026-04-14 20:27 | 55.15784 | 84.47244 | 19970 ft | 361 kts | 260° |
| 2026-04-14 20:28 | 55.15059 | 84.43089 | 19468 ft | 359 kts | 260° |
| 2026-04-14 20:28 | 55.14338 | 84.38955 | 18969 ft | 358 kts | 260° |
| 2026-04-14 20:28 | 55.13617 | 84.34817 | 18462 ft | 356 kts | 259° |
| 2026-04-14 20:28 | 55.12893 | 84.30674 | 17963 ft | 355 kts | 259° |
| 2026-04-14 20:29 | 55.12171 | 84.26547 | 17440 ft | 354 kts | 259° |
| 2026-04-14 20:29 | 55.11453 | 84.22447 | 16927 ft | 353 kts | 258° |
| 2026-04-14 20:29 | 55.10736 | 84.18372 | 16406 ft | 352 kts | 258° |
| 2026-04-14 20:29 | 55.10025 | 84.14339 | 15898 ft | 350 kts | 258° |
| 2026-04-14 20:30 | 55.09315 | 84.10323 | 15390 ft | 349 kts | 258° |
| 2026-04-14 20:30 | 55.08609 | 84.06274 | 14869 ft | 347 kts | 259° |
| 2026-04-14 20:30 | 55.08060 | 84.02213 | 14370 ft | 343 kts | 264° |
| 2026-04-14 20:30 | 55.07712 | 83.98141 | 13913 ft | 337 kts | 268° |
| 2026-04-14 20:31 | 55.07457 | 83.94099 | 13483 ft | 333 kts | 269° |
| 2026-04-14 20:31 | 55.07218 | 83.90136 | 13037 ft | 329 kts | 269° |
| 2026-04-14 20:31 | 55.06977 | 83.86168 | 12564 ft | 327 kts | 268° |
| 2026-04-14 20:31 | 55.06739 | 83.82285 | 12100 ft | 324 kts | 268° |
| 2026-04-14 20:32 | 55.06501 | 83.78433 | 11649 ft | 321 kts | 268° |
| 2026-04-14 20:32 | 55.06279 | 83.74891 | 11228 ft | 318 kts | 268° |
| 2026-04-14 20:32 | 55.06041 | 83.71111 | 10795 ft | 315 kts | 268° |
| 2026-04-14 20:32 | 55.05806 | 83.67424 | 10658 ft | 301 kts | 268° |
| 2026-04-14 20:33 | 55.05576 | 83.63874 | 10512 ft | 288 kts | 268° |
| 2026-04-14 20:33 | 55.05357 | 83.60473 | 10370 ft | 277 kts | 268° |
| 2026-04-14 20:33 | 55.05145 | 83.57172 | 9996 ft | 274 kts | 268° |
| 2026-04-14 20:34 | 55.04726 | 83.50607 | 9225 ft | 270 kts | 268° |
| 2026-04-14 20:34 | 55.04517 | 83.47390 | 8861 ft | 268 kts | 268° |
| 2026-04-14 20:34 | 55.04306 | 83.44177 | 8501 ft | 266 kts | 268° |
| 2026-04-14 20:34 | 55.04095 | 83.40967 | 8135 ft | 264 kts | 268° |
| 2026-04-14 20:35 | 55.03889 | 83.37833 | 7789 ft | 262 kts | 268° |
| 2026-04-14 20:35 | 55.03643 | 83.34695 | 7440 ft | 262 kts | 260° |
| 2026-04-14 20:35 | 55.02970 | 83.31755 | 7170 ft | 266 kts | 242° |
| 2026-04-14 20:35 | 55.01902 | 83.29110 | 7195 ft | 271 kts | 236° |
| 2026-04-14 20:36 | 55.00747 | 83.26494 | 6983 ft | 272 kts | 235° |
| 2026-04-14 20:36 | 54.99595 | 83.23910 | 6615 ft | 271 kts | 235° |
| 2026-04-14 20:36 | 54.98452 | 83.21330 | 6255 ft | 269 kts | 235° |
| 2026-04-14 20:36 | 54.97317 | 83.18754 | 5901 ft | 267 kts | 235° |
| 2026-04-14 20:37 | 54.96200 | 83.16209 | 5551 ft | 265 kts | 235° |
| 2026-04-14 20:37 | 54.95092 | 83.13683 | 5321 ft | 257 kts | 235° |
| 2026-04-14 20:37 | 54.94046 | 83.11304 | 5306 ft | 242 kts | 236° |
| 2026-04-14 20:37 | 54.93321 | 83.08835 | 5262 ft | 221 kts | 266° |
| 2026-04-14 20:38 | 54.93606 | 83.06388 | 5138 ft | 201 kts | 304° |
| 2026-04-14 20:38 | 54.94526 | 83.04691 | 4891 ft | 192 kts | 317° |
| 2026-04-14 20:38 | 54.95455 | 83.03056 | 4585 ft | 186 kts | 315° |
| 2026-04-14 20:38 | 54.96326 | 83.01442 | 4319 ft | 179 kts | 314° |
| 2026-04-14 20:39 | 54.97146 | 82.99876 | 4075 ft | 172 kts | 314° |
| 2026-04-14 20:39 | 54.97923 | 82.98367 | 3849 ft | 164 kts | 313° |
| 2026-04-14 20:39 | 54.98656 | 82.96931 | 3634 ft | 156 kts | 313° |
| 2026-04-14 20:39 | 54.99350 | 82.95567 | 3475 ft | 144 kts | 313° |
| 2026-04-14 20:40 | 54.99997 | 82.94290 | 3313 ft | 141 kts | 313° |
| 2026-04-14 20:40 | 55.00642 | 82.93020 | 3048 ft | 139 kts | 313° |
| 2026-04-14 20:40 | 55.01282 | 82.91756 | 2875 ft | 139 kts | 313° |
| 2026-04-14 20:40 | 55.01920 | 82.90494 | 2689 ft | 139 kts | 312° |
| 2026-04-14 20:41 | 55.02556 | 82.89232 | 2506 ft | 138 kts | 312° |
| 2026-04-14 20:41 | 55.03121 | 82.87886 | 2322 ft | 139 kts | 287° |
| 2026-04-14 20:41 | 55.03162 | 82.86205 | 2387 ft | 142 kts | 268° |
| 2026-04-14 20:41 | 55.03038 | 82.84529 | 2370 ft | 138 kts | 264° |
| 2026-04-14 20:42 | 55.02886 | 82.82889 | 2188 ft | 137 kts | 263° |
| 2026-04-14 20:42 | 55.02730 | 82.81251 | 1992 ft | 136 kts | 263° |
| 2026-04-14 20:42 | 55.02428 | 82.78021 | 1615 ft | 135 kts | 263° |
| 2026-04-14 20:43 | 55.02278 | 82.76395 | 1421 ft | 135 kts | 263° |
| 2026-04-14 20:43 | 55.02131 | 82.74800 | 1233 ft | 135 kts | 263° |
| 2026-04-14 20:43 | 55.01979 | 82.73171 | 1044 ft | 134 kts | 262° |
| 2026-04-14 20:43 | 55.01828 | 82.71579 | 848 ft | 134 kts | 262° |
| 2026-04-14 20:44 | 55.01681 | 82.69988 | 658 ft | 133 kts | 262° |
| 2026-04-14 20:44 | 55.01545 | 82.68382 | 461 ft | 132 kts | 262° |
| 2026-04-14 20:44 | 55.01407 | 82.66847 | 357 ft | 120 kts | 262° |
| 2026-04-14 20:44 | 55.01297 | 82.65656 | 355 ft | 76 kts | 262° |
| 2026-04-14 20:45 | 55.01244 | 82.65067 | 355 ft | 25 kts | 262° |
| 2026-04-14 20:45 | 55.01216 | 82.64764 | 353 ft | 25 kts | 261° |
| 2026-04-14 20:45 | 55.01190 | 82.64471 | 354 ft | 23 kts | 261° |
| 2026-04-14 20:45 | 55.01164 | 82.64195 | 355 ft | 22 kts | 261° |
| 2026-04-14 20:46 | 55.01144 | 82.64030 | 352 ft | 11 kts | 240° |
| 2026-04-14 20:46 | 55.01081 | 82.63993 | 353 ft | 9 kts | 171° |
| 2026-04-14 20:46 | 55.01025 | 82.64009 | 354 ft | 6 kts | 165° |
| 2026-04-14 20:46 | 55.00995 | 82.64062 | 355 ft | 6 kts | 111° |
| 2026-04-14 20:47 | 55.00980 | 82.64165 | 355 ft | 10 kts | 103° |
| 2026-04-14 20:47 | 55.00961 | 82.64309 | 355 ft | 13 kts | 103° |
| 2026-04-14 20:47 | 55.00937 | 82.64488 | 355 ft | 16 kts | 102° |
| 2026-04-14 20:47 | 55.00911 | 82.64701 | 355 ft | 19 kts | 102° |
| 2026-04-14 20:48 | 55.00881 | 82.64934 | 355 ft | 19 kts | 103° |
| 2026-04-14 20:48 | 55.00875 | 82.65080 | 355 ft | 11 kts | 81° |
| 2026-04-14 20:48 | 55.00883 | 82.65219 | 355 ft | 12 kts | 88° |
| 2026-04-14 20:48 | 55.00889 | 82.65362 | 357 ft | 10 kts | 81° |
| 2026-04-14 20:49 | 55.00902 | 82.65490 | 358 ft | 9 kts | 81° |
| 2026-04-14 20:49 | 55.00913 | 82.65604 | 359 ft | 9 kts | 81° |
| 2026-04-14 20:49 | 55.00923 | 82.65717 | 360 ft | 8 kts | 82° |
| 2026-04-14 20:49 | 55.00931 | 82.65811 | 360 ft | 8 kts | 82° |
| 2026-04-14 20:50 | 55.00940 | 82.65915 | 360 ft | 9 kts | 81° |
| 2026-04-14 20:50 | 55.00951 | 82.66032 | 360 ft | 10 kts | 77° |
| 2026-04-14 20:50 | 55.00971 | 82.66149 | 359 ft | 10 kts | 72° |
| 2026-04-14 20:50 | 55.00996 | 82.66261 | 359 ft | 8 kts | 77° |
| 2026-04-14 20:51 | 55.00981 | 82.66341 | 359 ft | 4 kts | 147° |
| 2026-04-14 20:51 | 55.00952 | 82.66353 | 359 ft | 4 kts | 172° |
| 2026-04-14 20:51 | 55.00943 | 82.66355 | 359 ft | 0 kts | 172° |
| 2026-04-14 20:51 | 55.00938 | 82.66357 | 359 ft | 0 kts | 172° |
| 2026-04-14 20:52 | 55.00935 | 82.66357 | 359 ft | 0 kts | 172° |